MNL weather

Ninoy Aquino International Airport
Manila, Philippines

Public forecast

Using degrees Celsius for public forecast. Weather courtesy of forecast.io.

METAR (pilot weather report)

Retrieved 2017/03/26 16:00 UTC (58 minutes ago):

RPLL 261600Z 12008KT 080V160 9999 FEW025 28/23 Q1016 NOSIG RMK A3000

TAF (pilot weather forecast)

Retrieved 2017/03/26 12:00 UTC (5 hours ago):

TAF RPLL 261100Z 2612/2718 12008KT 9999 FEW025 TX35/2705Z TN26/2622Z TEMPO 2612/2618 13010KT FEW025 SCT300 TEMPO 2618/2624 09005KT